Portada
METAR-TAF:

METAR-TAF

Aeropuertos :

Nuadibú, Mauritania

Aeropuerto Internacional de Nouadhibou

latitud: 20-56N, longitud: 017-02W, altitud: 5 m

Observación

El informe se hizo hace 39 minutos, a las 03:00 UTC
Viento 6 kt del norte-noroeste, variando entre oeste-noroeste y norte
Temperatura 21°C
Humedad 83%
Presión 1011 hPa
Visibilidad: 6000 m

METAR: GQPP 230300Z 33006KT 300V360 6000 NSC 21/18 Q1011 NOSIG

Hora: 03:39 (03:39 UTC)

Pronóstico

El informe se hizo hace 4 horas y 39 minutos, a las 23:00 UTC
Pronóstico válido del 23 a las 00 UTC al 23 a las 24 UTC
Viento 14 kt del norte
Visibilidad: 7000 m

TAF: GQPP 222300Z 2300/2324 36014KT 7000 NSC

Observaciones y pronósticos meteorológicos de más de 4000 aeropuertos (mensajes METAR y TAF).

Los puntos amarillos y rojos representan las estaciones disponibles.

Ponga el ratón en el punto deseado para ver el nombre de la estación.

Haga clic para ver las observaciones y los pronósticos meteorológicos.

Para cambiar el mapa : haga clic en los botones verdes con una cruz de color negro para hacer un zoom, en el botón verde con un guión para alejar o en las flechas verdes para mapas adyacentes.


METAR-TAF: